createdAt,value
2017-09-30T00:01:18.307Z,37.45
2017-09-30T00:03:48.262Z,37.43
2017-09-30T00:06:18.671Z,37.42
2017-09-30T00:08:49.777Z,37.42
2017-09-30T00:11:24.204Z,37.42
2017-09-30T00:13:54.951Z,37.42
2017-09-30T00:16:24.951Z,37.42
2017-09-30T00:18:59.227Z,37.40
2017-09-30T00:21:29.332Z,37.46
2017-09-30T00:23:59.258Z,37.46
2017-09-30T00:26:29.380Z,37.45
2017-09-30T00:29:01.788Z,37.45
2017-09-30T00:31:35.717Z,37.42
2017-09-30T00:34:06.986Z,37.44
2017-09-30T00:36:40.219Z,37.42
2017-09-30T00:39:11.351Z,37.44
2017-09-30T00:41:42.606Z,37.46
2017-09-30T00:44:12.720Z,37.50
2017-09-30T00:46:44.129Z,37.48
2017-09-30T00:49:16.070Z,37.48
2017-09-30T00:51:46.685Z,37.45
2017-09-30T00:54:16.868Z,37.46
2017-09-30T00:56:47.332Z,37.46
2017-09-30T00:59:18.191Z,37.45
2017-09-30T01:01:48.778Z,37.45
2017-09-30T01:04:19.623Z,37.41
2017-09-30T01:06:52.084Z,37.37
2017-09-30T01:09:26.303Z,37.44
2017-09-30T01:12:01.756Z,37.44
2017-09-30T01:14:32.601Z,37.45
2017-09-30T01:17:03.826Z,37.44
2017-09-30T01:19:36.513Z,37.46
2017-09-30T01:22:06.789Z,37.45
2017-09-30T01:24:37.924Z,37.45
2017-09-30T01:27:08.865Z,37.45
2017-09-30T01:29:45.926Z,37.45
2017-09-30T01:32:22.022Z,37.43
2017-09-30T01:34:51.867Z,37.43
2017-09-30T01:37:23.477Z,37.36
2017-09-30T01:39:54.006Z,37.40
2017-09-30T01:42:24.233Z,37.40
2017-09-30T01:44:54.376Z,37.42
2017-09-30T01:47:24.864Z,37.42
2017-09-30T01:49:55.030Z,37.41
2017-09-30T01:52:25.679Z,37.41
2017-09-30T01:54:55.655Z,37.42
2017-09-30T01:57:26.056Z,37.40
2017-09-30T01:59:56.508Z,37.43
2017-09-30T02:02:26.333Z,37.40
2017-09-30T02:04:56.077Z,37.42
2017-09-30T02:07:25.977Z,37.42
2017-09-30T02:09:56.330Z,37.39
2017-09-30T02:12:27.474Z,37.40
2017-09-30T02:14:58.339Z,37.34
2017-09-30T02:17:27.981Z,37.37
2017-09-30T02:19:58.063Z,37.39
2017-09-30T02:22:27.833Z,37.39
2017-09-30T02:24:57.932Z,37.38
2017-09-30T02:27:27.598Z,37.37
2017-09-30T02:29:57.161Z,37.36
2017-09-30T02:32:28.451Z,37.38
2017-09-30T02:34:59.184Z,37.38
2017-09-30T02:37:28.868Z,37.39
2017-09-30T02:40:00.921Z,37.36
2017-09-30T02:42:31.065Z,37.40
2017-09-30T02:45:02.649Z,37.40
2017-09-30T02:47:32.803Z,37.40
2017-09-30T02:50:02.512Z,37.39
2017-09-30T02:52:33.799Z,37.34
2017-09-30T02:55:03.941Z,37.37
2017-09-30T02:57:33.839Z,37.39
2017-09-30T03:00:07.603Z,37.36
2017-09-30T03:02:37.624Z,37.38
2017-09-30T03:05:07.279Z,37.37
2017-09-30T03:07:37.321Z,37.33
2017-09-30T03:10:08.582Z,37.36
2017-09-30T03:12:37.940Z,37.38
2017-09-30T03:15:08.161Z,37.38
2017-09-30T03:17:38.663Z,37.32
2017-09-30T03:20:08.487Z,37.36
2017-09-30T03:22:40.786Z,37.38
2017-09-30T03:25:11.287Z,37.38
2017-09-30T03:27:42.968Z,37.34
2017-09-30T03:30:13.722Z,37.38
2017-09-30T03:32:43.381Z,37.39
2017-09-30T03:35:15.747Z,37.40
2017-09-30T03:37:46.340Z,37.38
2017-09-30T03:40:17.321Z,37.40
2017-09-30T03:42:47.690Z,37.39
2017-09-30T03:45:17.880Z,37.38
2017-09-30T03:47:47.724Z,37.36
2017-09-30T03:50:17.730Z,37.36
2017-09-30T03:52:48.721Z,37.36
2017-09-30T03:55:18.486Z,37.39
2017-09-30T03:57:50.740Z,37.39
2017-09-30T04:00:20.822Z,37.39
2017-09-30T04:02:51.057Z,37.38
2017-09-30T04:05:22.139Z,37.39
2017-09-30T04:07:53.550Z,37.38
2017-09-30T04:10:23.031Z,37.39
2017-09-30T04:12:52.932Z,37.39
2017-09-30T04:15:22.984Z,37.38
2017-09-30T04:17:52.599Z,37.36
2017-09-30T04:20:23.068Z,37.35
2017-09-30T04:22:52.738Z,37.34
2017-09-30T04:25:22.258Z,37.33
2017-09-30T04:27:52.398Z,37.32
2017-09-30T04:30:23.797Z,37.32
2017-09-30T04:32:55.080Z,37.30
2017-09-30T04:35:25.999Z,37.34
2017-09-30T04:37:57.222Z,37.33
2017-09-30T04:40:29.099Z,37.34
2017-09-30T04:43:00.727Z,37.36
2017-09-30T04:45:31.127Z,37.37
2017-09-30T04:48:00.521Z,37.36
2017-09-30T04:50:30.865Z,37.34
2017-09-30T04:53:00.508Z,37.38
2017-09-30T04:55:31.592Z,37.37
2017-09-30T04:58:04.908Z,37.36
2017-09-30T05:00:34.644Z,37.36
2017-09-30T05:03:04.708Z,37.37
2017-09-30T05:05:34.962Z,37.40
2017-09-30T05:08:06.862Z,37.38
2017-09-30T05:10:38.660Z,37.37
2017-09-30T05:13:09.128Z,37.37
2017-09-30T05:15:40.051Z,37.38
2017-09-30T05:18:19.081Z,37.41
2017-09-30T05:20:49.437Z,37.43
2017-09-30T05:23:19.896Z,37.42
2017-09-30T05:25:51.173Z,37.44
2017-09-30T05:28:20.826Z,37.44
2017-09-30T05:30:51.001Z,37.46
2017-09-30T05:33:20.739Z,37.47
2017-09-30T05:35:50.321Z,37.46
2017-09-30T05:38:20.574Z,37.46
2017-09-30T05:40:51.395Z,37.47
2017-09-30T05:43:22.278Z,37.46
2017-09-30T05:45:52.607Z,37.48
2017-09-30T05:48:23.056Z,37.47
2017-09-30T05:50:53.439Z,37.48
2017-09-30T05:53:23.937Z,37.48
2017-09-30T05:55:56.311Z,37.47
2017-09-30T05:58:25.916Z,37.49
2017-09-30T06:01:03.518Z,37.49
2017-09-30T06:03:33.164Z,37.44
2017-09-30T06:06:04.333Z,37.44
2017-09-30T06:08:34.145Z,37.42
2017-09-30T06:11:05.652Z,37.41
2017-09-30T06:13:36.893Z,37.39
2017-09-30T06:16:09.570Z,37.39
2017-09-30T06:18:44.157Z,37.36
2017-09-30T06:21:18.602Z,37.34
2017-09-30T06:23:49.225Z,37.33
2017-09-30T06:26:19.362Z,37.32
2017-09-30T06:28:49.388Z,37.22
2017-09-30T06:31:20.083Z,37.29
2017-09-30T06:33:51.091Z,37.27
2017-09-30T06:36:33.112Z,37.23
2017-09-30T06:39:04.327Z,37.20
2017-09-30T06:41:36.173Z,37.21
2017-09-30T06:44:14.648Z,37.22
2017-09-30T06:46:51.369Z,37.19
2017-09-30T06:49:22.899Z,37.18
2017-09-30T06:51:55.086Z,37.17
2017-09-30T06:54:26.100Z,37.17
2017-09-30T06:56:56.223Z,37.18
2017-09-30T06:59:26.739Z,37.19
2017-09-30T07:01:57.070Z,37.22
2017-09-30T07:04:27.031Z,37.24
2017-09-30T07:06:58.524Z,37.20
2017-09-30T07:09:29.971Z,37.23
2017-09-30T07:12:02.138Z,37.23
2017-09-30T07:14:34.287Z,37.21
2017-09-30T07:17:05.633Z,37.19
2017-09-30T07:19:37.578Z,37.18
2017-09-30T07:22:08.252Z,37.21
2017-09-30T07:24:41.319Z,37.20
2017-09-30T07:27:17.307Z,37.22
2017-09-30T07:29:50.359Z,37.23
2017-09-30T07:32:26.581Z,37.22
2017-09-30T07:34:59.593Z,37.20
2017-09-30T07:37:33.622Z,37.18
2017-09-30T07:40:05.981Z,37.18
2017-09-30T07:42:38.564Z,37.17
2017-09-30T07:45:11.883Z,37.15
2017-09-30T07:47:43.624Z,37.16
2017-09-30T07:50:22.462Z,37.16
2017-09-30T07:52:55.646Z,37.11
2017-09-30T07:55:29.409Z,37.11
2017-09-30T07:58:06.021Z,37.05
2017-09-30T08:00:51.786Z,37.06
2017-09-30T08:03:24.956Z,37.05
2017-09-30T08:05:59.047Z,37.01
2017-09-30T08:08:31.035Z,37.05
2017-09-30T08:11:06.576Z,37.07
2017-09-30T08:13:38.989Z,37.10
2017-09-30T08:16:09.841Z,37.06
2017-09-30T08:18:42.294Z,37.08
2017-09-30T08:21:14.443Z,37.09
2017-09-30T08:23:50.657Z,37.09
2017-09-30T08:26:24.515Z,37.09
2017-09-30T08:28:55.176Z,37.06
2017-09-30T08:31:27.274Z,37.08
2017-09-30T08:33:59.749Z,37.08
2017-09-30T08:36:34.468Z,37.08
2017-09-30T08:39:10.857Z,37.09
2017-09-30T08:41:44.558Z,37.12
2017-09-30T08:44:27.209Z,37.12
2017-09-30T08:46:57.904Z,37.11
2017-09-30T08:49:28.962Z,37.11
2017-09-30T08:51:59.323Z,37.09
2017-09-30T08:54:30.517Z,37.09
2017-09-30T08:57:05.821Z,37.09
2017-09-30T08:59:39.723Z,37.07
2017-09-30T09:02:17.020Z,37.08
2017-09-30T09:04:47.760Z,37.10
2017-09-30T09:07:17.431Z,37.10
2017-09-30T09:09:48.421Z,37.10
2017-09-30T09:12:18.795Z,37.09
2017-09-30T09:14:50.233Z,37.11
2017-09-30T09:17:21.406Z,37.10
2017-09-30T09:19:51.592Z,37.10
2017-09-30T09:22:24.523Z,37.09
2017-09-30T09:24:54.834Z,37.10
2017-09-30T09:27:26.561Z,37.08
2017-09-30T09:29:57.267Z,37.05
2017-09-30T09:32:33.701Z,37.05
2017-09-30T09:35:05.285Z,37.08
2017-09-30T09:37:35.283Z,37.07
2017-09-30T09:40:06.507Z,37.07
2017-09-30T09:42:36.276Z,37.04
2017-09-30T09:45:09.438Z,36.99
2017-09-30T09:47:44.625Z,36.96
2017-09-30T09:50:15.144Z,36.98
2017-09-30T09:52:48.098Z,37.00
2017-09-30T09:55:18.306Z,37.01
2017-09-30T09:57:48.273Z,37.02
2017-09-30T10:00:20.548Z,37.03
2017-09-30T10:02:51.858Z,37.04
2017-09-30T10:05:30.501Z,37.06
2017-09-30T10:08:00.400Z,37.08
2017-09-30T10:10:30.456Z,37.05
2017-09-30T10:13:00.322Z,37.04
2017-09-30T10:15:30.722Z,37.03
2017-09-30T10:18:05.510Z,37.03
2017-09-30T10:20:42.564Z,37.02
2017-09-30T10:23:23.370Z,37.00
2017-09-30T10:25:55.306Z,37.04
2017-09-30T10:28:26.692Z,37.03
2017-09-30T10:30:57.198Z,37.01
2017-09-30T10:33:27.777Z,37.00
2017-09-30T10:35:58.339Z,36.98
2017-09-30T10:38:27.861Z,36.99
2017-09-30T10:41:02.075Z,36.98
2017-09-30T10:43:40.689Z,36.92
2017-09-30T10:46:13.726Z,36.92
2017-09-30T10:48:44.482Z,36.88
2017-09-30T10:51:15.473Z,36.93
2017-09-30T10:53:46.712Z,36.91
2017-09-30T10:56:20.096Z,36.93
2017-09-30T10:58:50.000Z,36.92
2017-09-30T11:01:21.897Z,36.93
2017-09-30T11:03:52.092Z,36.92
2017-09-30T11:06:22.784Z,36.92
2017-09-30T11:09:00.356Z,36.89
2017-09-30T11:11:32.016Z,36.89
2017-09-30T11:14:01.838Z,36.88
2017-09-30T11:16:33.441Z,36.84
2017-09-30T11:19:03.367Z,36.81
2017-09-30T11:21:33.447Z,36.79
2017-09-30T11:24:03.548Z,36.79
2017-09-30T11:26:38.373Z,36.74
2017-09-30T11:29:12.820Z,36.73
2017-09-30T11:31:47.333Z,36.75
2017-09-30T11:34:26.656Z,36.75
2017-09-30T11:36:59.137Z,36.74
2017-09-30T11:39:35.927Z,36.70
2017-09-30T11:42:09.133Z,36.65
2017-09-30T11:44:49.961Z,36.62
2017-09-30T11:47:22.637Z,36.61
2017-09-30T11:49:55.457Z,36.63
2017-09-30T11:52:29.572Z,36.65
2017-09-30T11:54:59.971Z,36.65
2017-09-30T11:57:30.548Z,36.64
2017-09-30T12:00:02.665Z,36.65
2017-09-30T12:02:37.755Z,36.66
2017-09-30T12:05:16.072Z,36.67
2017-09-30T12:07:49.177Z,36.66
2017-09-30T12:10:21.489Z,36.66
2017-09-30T12:12:53.863Z,36.63
2017-09-30T12:15:24.982Z,36.63
2017-09-30T12:17:55.014Z,36.62
2017-09-30T12:20:26.128Z,36.61
2017-09-30T12:22:55.525Z,36.58
2017-09-30T12:25:29.481Z,36.58
2017-09-30T12:28:04.817Z,36.56
2017-09-30T12:30:38.251Z,36.53
2017-09-30T12:33:10.669Z,36.51
2017-09-30T12:35:41.838Z,36.50
2017-09-30T12:38:13.927Z,36.47
2017-09-30T12:40:45.255Z,36.47
2017-09-30T12:43:17.227Z,36.47
2017-09-30T12:45:48.228Z,36.45
2017-09-30T12:48:34.985Z,36.49
2017-09-30T12:51:06.052Z,36.50
2017-09-30T12:53:41.277Z,36.57
2017-09-30T12:56:16.393Z,36.58
2017-09-30T12:58:46.817Z,36.60
2017-09-30T13:01:16.626Z,36.64
2017-09-30T13:03:46.717Z,36.66
2017-09-30T13:06:17.257Z,36.66
2017-09-30T13:08:47.157Z,36.68
2017-09-30T13:11:16.935Z,36.69
2017-09-30T13:13:46.631Z,36.71
2017-09-30T13:16:17.296Z,36.70
2017-09-30T13:18:47.190Z,36.70
2017-09-30T13:21:19.786Z,36.67
2017-09-30T13:23:50.235Z,36.63
2017-09-30T13:26:20.417Z,36.59
2017-09-30T13:28:50.672Z,36.54
2017-09-30T13:31:25.623Z,36.55
2017-09-30T13:34:00.064Z,36.52
2017-09-30T13:36:32.488Z,36.51
2017-09-30T13:39:03.908Z,36.47
2017-09-30T13:41:35.373Z,36.46
2017-09-30T13:44:05.222Z,36.44
2017-09-30T13:46:43.327Z,36.40
2017-09-30T13:49:17.456Z,36.34
2017-09-30T13:51:47.832Z,36.37
2017-09-30T13:54:23.068Z,36.33
2017-09-30T13:56:55.290Z,36.28
2017-09-30T13:59:29.808Z,36.37
2017-09-30T14:02:01.725Z,36.30
2017-09-30T14:04:36.259Z,36.37
2017-09-30T14:07:09.859Z,36.39
2017-09-30T14:09:42.258Z,36.34
2017-09-30T14:12:14.766Z,36.33
2017-09-30T14:14:51.034Z,36.39
2017-09-30T14:17:21.115Z,36.40
2017-09-30T14:19:51.279Z,36.44
2017-09-30T14:22:23.718Z,36.46
2017-09-30T14:24:58.471Z,36.42
2017-09-30T14:27:29.963Z,36.43
2017-09-30T14:30:03.481Z,36.47
2017-09-30T14:32:34.662Z,36.46
2017-09-30T14:35:04.416Z,36.51
2017-09-30T14:37:38.474Z,36.52
2017-09-30T14:40:12.648Z,36.54
2017-09-30T14:42:49.541Z,36.54
2017-09-30T14:45:19.131Z,36.61
2017-09-30T14:47:50.378Z,36.65
2017-09-30T14:50:23.388Z,36.71
2017-09-30T14:52:55.103Z,36.67
2017-09-30T14:55:25.481Z,36.74
2017-09-30T14:57:55.252Z,36.72
2017-09-30T15:00:27.032Z,36.72
2017-09-30T15:02:59.372Z,36.70
2017-09-30T15:05:30.354Z,36.64
2017-09-30T15:08:07.010Z,36.61
2017-09-30T15:10:38.821Z,36.60
2017-09-30T15:13:11.352Z,36.59
2017-09-30T15:15:42.138Z,36.61
2017-09-30T15:18:13.927Z,36.64
2017-09-30T15:20:44.595Z,36.74
2017-09-30T15:23:14.821Z,36.74
2017-09-30T15:25:45.516Z,36.73
2017-09-30T15:28:16.809Z,36.72
2017-09-30T15:30:49.110Z,36.74
2017-09-30T15:33:24.014Z,36.74
2017-09-30T15:35:55.437Z,36.73
2017-09-30T15:38:26.798Z,36.70
2017-09-30T15:41:00.446Z,36.71
2017-09-30T15:43:34.556Z,36.72
2017-09-30T15:46:04.455Z,36.70
2017-09-30T15:48:36.278Z,36.69
2017-09-30T15:51:09.511Z,36.68
2017-09-30T15:56:34.999Z,36.70
2017-09-30T15:59:10.071Z,36.71
2017-09-30T16:01:42.787Z,36.72
2017-09-30T16:04:16.998Z,36.73
2017-09-30T16:06:50.238Z,36.72
2017-09-30T16:09:26.227Z,36.72
2017-09-30T16:11:56.719Z,36.70
2017-09-30T16:14:27.090Z,36.71
2017-09-30T16:16:58.306Z,36.69
2017-09-30T16:19:28.771Z,36.68
2017-09-30T16:21:59.113Z,36.68
2017-09-30T16:24:32.220Z,36.66
2017-09-30T16:27:08.460Z,36.65
2017-09-30T16:29:39.566Z,36.64
2017-09-30T16:32:13.715Z,36.63
2017-09-30T16:34:49.373Z,36.63
2017-09-30T16:37:23.552Z,36.62
2017-09-30T16:39:55.916Z,36.61
2017-09-30T16:42:31.497Z,36.59
2017-09-30T16:45:02.539Z,36.62
2017-09-30T16:47:35.698Z,36.62
2017-09-30T16:50:17.869Z,36.61
2017-09-30T16:52:51.718Z,36.60
2017-09-30T16:55:23.850Z,36.61
2017-09-30T16:57:54.052Z,36.61
2017-09-30T17:00:27.624Z,36.62
2017-09-30T17:03:00.374Z,36.61
2017-09-30T17:05:32.549Z,36.62
2017-09-30T17:08:03.949Z,36.62
2017-09-30T17:10:35.718Z,36.62
2017-09-30T17:13:06.337Z,36.62
2017-09-30T17:15:37.183Z,36.62
2017-09-30T17:18:09.307Z,36.66
2017-09-30T17:20:40.197Z,36.67
2017-09-30T17:23:12.993Z,36.69
2017-09-30T17:25:45.045Z,36.65
2017-09-30T17:28:16.825Z,36.69
2017-09-30T17:30:47.085Z,36.68
2017-09-30T17:33:18.042Z,36.67
2017-09-30T17:35:51.198Z,36.67
2017-09-30T17:38:22.553Z,36.67
2017-09-30T17:40:54.601Z,36.69
2017-09-30T17:43:27.035Z,36.67
2017-09-30T17:45:58.488Z,36.66
2017-09-30T17:48:29.962Z,36.65
2017-09-30T17:51:01.457Z,36.65
2017-09-30T17:53:32.426Z,36.65
2017-09-30T17:56:04.213Z,36.64
2017-09-30T17:58:35.432Z,36.64
2017-09-30T18:01:08.476Z,36.62
2017-09-30T18:03:38.796Z,36.66
2017-09-30T18:06:11.498Z,36.65
2017-09-30T18:08:45.449Z,36.66
2017-09-30T18:11:16.727Z,36.63
2017-09-30T18:13:47.877Z,36.64
2017-09-30T18:16:19.808Z,36.66
2017-09-30T18:18:51.467Z,36.65
2017-09-30T18:21:23.831Z,36.62
2017-09-30T18:23:55.980Z,36.64
2017-09-30T18:26:27.689Z,36.63
2017-09-30T18:28:59.276Z,36.63
2017-09-30T18:31:32.868Z,36.60
2017-09-30T18:34:13.579Z,36.60
2017-09-30T18:36:53.906Z,36.61
2017-09-30T18:39:29.807Z,36.63
2017-09-30T18:42:14.074Z,36.65
2017-09-30T18:44:50.421Z,36.66
2017-09-30T18:47:29.085Z,36.67
2017-09-30T18:50:14.674Z,36.67
2017-09-30T18:52:46.751Z,36.68
2017-09-30T18:55:18.653Z,36.67
2017-09-30T18:57:52.125Z,36.69
2017-09-30T19:00:23.059Z,36.68
2017-09-30T19:02:53.657Z,36.68
2017-09-30T19:05:26.396Z,36.69
2017-09-30T19:07:57.920Z,36.70
2017-09-30T19:10:30.638Z,36.69
2017-09-30T19:13:04.992Z,36.72
2017-09-30T19:15:39.591Z,36.72
2017-09-30T19:18:11.278Z,36.72
2017-09-30T19:20:45.542Z,36.72
2017-09-30T19:26:49.910Z,36.73
2017-09-30T19:29:21.094Z,36.74
2017-09-30T19:31:51.386Z,36.74
2017-09-30T19:34:23.780Z,36.75
2017-09-30T19:36:54.861Z,36.74
2017-09-30T19:39:30.430Z,36.77
2017-09-30T19:42:00.806Z,36.78
2017-09-30T19:44:33.751Z,36.78
2017-09-30T19:47:04.258Z,36.80
2017-09-30T19:49:34.685Z,36.81
2017-09-30T19:52:04.699Z,36.81
2017-09-30T19:54:34.702Z,36.83
2017-09-30T19:57:05.174Z,36.82
2017-09-30T19:59:35.542Z,36.83
2017-09-30T20:02:05.926Z,36.83
2017-09-30T20:04:35.540Z,36.83
2017-09-30T20:07:06.570Z,36.83
2017-09-30T20:09:36.903Z,36.86
2017-09-30T20:12:06.794Z,36.86
2017-09-30T20:14:38.219Z,36.85
2017-09-30T20:17:09.517Z,36.85
2017-09-30T20:19:39.478Z,36.86
2017-09-30T20:22:09.933Z,36.88
2017-09-30T20:24:40.950Z,36.89
2017-09-30T20:27:10.950Z,36.89
2017-09-30T20:29:41.861Z,36.90
2017-09-30T20:32:14.703Z,36.93
2017-09-30T20:34:46.585Z,36.96
2017-09-30T20:37:23.743Z,36.97
2017-09-30T20:39:57.526Z,37.00
2017-09-30T20:42:30.706Z,37.05
2017-09-30T20:45:02.935Z,37.06
2017-09-30T20:47:35.847Z,37.09
2017-09-30T20:50:07.388Z,37.11
2017-09-30T20:52:39.239Z,37.12
2017-09-30T20:55:11.051Z,37.14
2017-09-30T20:57:41.507Z,37.17
2017-09-30T21:00:13.336Z,37.17
2017-09-30T21:02:46.587Z,37.15
2017-09-30T21:05:17.265Z,37.17
2017-09-30T21:07:51.396Z,37.16
2017-09-30T21:10:22.557Z,37.18
2017-09-30T21:12:54.367Z,37.20
2017-09-30T21:15:25.391Z,37.21
2017-09-30T21:17:55.903Z,37.23
2017-09-30T21:20:26.906Z,37.22
2017-09-30T21:22:58.321Z,37.23
2017-09-30T21:25:28.418Z,37.25
2017-09-30T21:28:00.491Z,37.27
2017-09-30T21:30:32.976Z,37.29
2017-09-30T21:33:05.691Z,37.33
2017-09-30T21:35:37.185Z,37.35
2017-09-30T21:38:12.807Z,37.36
2017-09-30T21:40:47.026Z,37.35
2017-09-30T21:43:18.769Z,37.37
2017-09-30T21:45:50.094Z,37.39
2017-09-30T21:48:26.390Z,37.41
2017-09-30T21:50:58.850Z,37.41
2017-09-30T21:53:29.953Z,37.41
2017-09-30T21:56:03.251Z,37.44
2017-09-30T21:58:34.868Z,37.43
2017-09-30T22:01:07.426Z,37.39
2017-09-30T22:03:39.548Z,37.45
2017-09-30T22:06:25.869Z,37.46
2017-09-30T22:09:12.674Z,37.42
2017-09-30T22:11:47.328Z,37.42
2017-09-30T22:14:17.503Z,37.46
2017-09-30T22:16:48.154Z,37.48
2017-09-30T22:19:17.765Z,37.51
2017-09-30T22:21:47.936Z,37.52
2017-09-30T22:24:19.151Z,37.53
2017-09-30T22:26:49.410Z,37.53
2017-09-30T22:29:21.510Z,37.54
2017-09-30T22:31:52.367Z,37.56
2017-09-30T22:34:23.208Z,37.56
2017-09-30T22:36:53.772Z,37.57
2017-09-30T22:39:24.520Z,37.56
2017-09-30T22:41:55.690Z,37.56
2017-09-30T22:44:27.573Z,37.54
2017-09-30T22:46:59.496Z,37.57
2017-09-30T22:49:29.852Z,37.56
2017-09-30T22:52:00.887Z,37.57
2017-09-30T22:54:32.191Z,37.57
2017-09-30T22:57:05.013Z,37.54
2017-09-30T22:59:38.009Z,37.56
2017-09-30T23:02:12.400Z,37.54
2017-09-30T23:04:44.696Z,37.58
2017-09-30T23:07:17.193Z,37.56
2017-09-30T23:09:51.796Z,37.58
2017-09-30T23:12:23.335Z,37.55
2017-09-30T23:14:54.029Z,37.53
2017-09-30T23:17:28.549Z,37.57
2017-09-30T23:20:00.505Z,37.60
2017-09-30T23:22:32.401Z,37.62
2017-09-30T23:25:02.716Z,37.63
2017-09-30T23:27:33.528Z,37.62
2017-09-30T23:30:09.378Z,37.64
2017-09-30T23:32:40.760Z,37.63
2017-09-30T23:35:12.555Z,37.64
2017-09-30T23:37:43.859Z,37.65
2017-09-30T23:40:15.203Z,37.64
2017-09-30T23:42:46.900Z,37.62
2017-09-30T23:45:18.228Z,37.62
2017-09-30T23:47:50.435Z,37.63
2017-09-30T23:50:22.413Z,37.64
2017-09-30T23:52:54.831Z,37.60
2017-09-30T23:55:29.908Z,37.67
2017-09-30T23:58:00.048Z,37.67
